sensor_id;sensor_type;location;lat;lon;timestamp;P1;durP1;ratioP1;P2;durP2;ratioP2
40244;SDS011;25963;42.694;23.600;2024-02-21T00:00:33;22.05;;;13.43;;
40244;SDS011;25963;42.694;23.600;2024-02-21T00:02:59;21.02;;;12.95;;
40244;SDS011;25963;42.694;23.600;2024-02-21T00:05:27;17.77;;;11.93;;
40244;SDS011;25963;42.694;23.600;2024-02-21T00:07:52;23.30;;;13.63;;
40244;SDS011;25963;42.694;23.600;2024-02-21T00:10:18;21.42;;;11.90;;
40244;SDS011;25963;42.694;23.600;2024-02-21T00:12:43;23.88;;;13.95;;
40244;SDS011;25963;42.694;23.600;2024-02-21T00:15:09;21.58;;;14.00;;
40244;SDS011;25963;42.694;23.600;2024-02-21T00:17:34;21.35;;;13.30;;
40244;SDS011;25963;42.694;23.600;2024-02-21T00:20:00;20.83;;;12.32;;
40244;SDS011;25963;42.694;23.600;2024-02-21T00:22:25;25.52;;;14.52;;
40244;SDS011;25963;42.694;23.600;2024-02-21T00:24:54;21.17;;;12.60;;
40244;SDS011;25963;42.694;23.600;2024-02-21T00:27:19;20.10;;;12.48;;
40244;SDS011;25963;42.694;23.600;2024-02-21T00:29:44;20.38;;;13.00;;
40244;SDS011;25963;42.694;23.600;2024-02-21T00:32:10;20.75;;;12.23;;
40244;SDS011;25963;42.694;23.600;2024-02-21T00:34:35;20.73;;;11.52;;
40244;SDS011;25963;42.694;23.600;2024-02-21T00:37:01;20.65;;;12.00;;
40244;SDS011;25963;42.694;23.600;2024-02-21T00:39:26;18.08;;;11.68;;
40244;SDS011;25963;42.694;23.600;2024-02-21T00:41:51;19.58;;;12.32;;
40244;SDS011;25963;42.694;23.600;2024-02-21T00:44:17;19.63;;;12.13;;
40244;SDS011;25963;42.694;23.600;2024-02-21T00:46:42;18.27;;;12.13;;
40244;SDS011;25963;42.694;23.600;2024-02-21T00:49:07;18.80;;;11.90;;
40244;SDS011;25963;42.694;23.600;2024-02-21T00:51:33;18.90;;;12.55;;
40244;SDS011;25963;42.694;23.600;2024-02-21T00:53:58;18.75;;;11.77;;
40244;SDS011;25963;42.694;23.600;2024-02-21T00:56:24;20.38;;;12.45;;
40244;SDS011;25963;42.694;23.600;2024-02-21T00:58:49;22.67;;;12.75;;
40244;SDS011;25963;42.694;23.600;2024-02-21T01:01:20;20.58;;;12.27;;
40244;SDS011;25963;42.694;23.600;2024-02-21T01:03:47;20.80;;;12.40;;
40244;SDS011;25963;42.694;23.600;2024-02-21T01:06:13;20.33;;;11.90;;
40244;SDS011;25963;42.694;23.600;2024-02-21T01:08:38;20.50;;;11.95;;
40244;SDS011;25963;42.694;23.600;2024-02-21T01:11:04;19.20;;;12.10;;
40244;SDS011;25963;42.694;23.600;2024-02-21T01:13:29;19.38;;;12.32;;
40244;SDS011;25963;42.694;23.600;2024-02-21T01:15:54;20.50;;;13.23;;
40244;SDS011;25963;42.694;23.600;2024-02-21T01:18:20;18.80;;;12.13;;
40244;SDS011;25963;42.694;23.600;2024-02-21T01:20:45;21.83;;;12.73;;
40244;SDS011;25963;42.694;23.600;2024-02-21T01:23:10;20.65;;;12.65;;
40244;SDS011;25963;42.694;23.600;2024-02-21T01:25:36;19.85;;;12.57;;
40244;SDS011;25963;42.694;23.600;2024-02-21T01:28:01;20.10;;;12.75;;
40244;SDS011;25963;42.694;23.600;2024-02-21T01:30:26;21.98;;;13.13;;
40244;SDS011;25963;42.694;23.600;2024-02-21T01:32:52;19.85;;;11.95;;
40244;SDS011;25963;42.694;23.600;2024-02-21T01:35:17;18.70;;;12.43;;
40244;SDS011;25963;42.694;23.600;2024-02-21T01:37:43;19.85;;;11.63;;
40244;SDS011;25963;42.694;23.600;2024-02-21T01:40:09;26.17;;;14.98;;
40244;SDS011;25963;42.694;23.600;2024-02-21T01:42:37;19.75;;;11.85;;
40244;SDS011;25963;42.694;23.600;2024-02-21T01:45:04;19.00;;;12.20;;
40244;SDS011;25963;42.694;23.600;2024-02-21T01:47:30;23.25;;;12.98;;
40244;SDS011;25963;42.694;23.600;2024-02-21T01:49:56;20.55;;;13.63;;
40244;SDS011;25963;42.694;23.600;2024-02-21T01:52:21;17.92;;;11.52;;
40244;SDS011;25963;42.694;23.600;2024-02-21T01:54:47;20.55;;;12.65;;
40244;SDS011;25963;42.694;23.600;2024-02-21T01:57:13;19.67;;;11.48;;
40244;SDS011;25963;42.694;23.600;2024-02-21T01:59:39;20.83;;;12.25;;
40244;SDS011;25963;42.694;23.600;2024-02-21T02:02:05;19.52;;;12.85;;
40244;SDS011;25963;42.694;23.600;2024-02-21T02:04:31;17.05;;;10.88;;
40244;SDS011;25963;42.694;23.600;2024-02-21T02:06:56;20.40;;;13.32;;
40244;SDS011;25963;42.694;23.600;2024-02-21T02:09:24;20.90;;;12.43;;
40244;SDS011;25963;42.694;23.600;2024-02-21T02:11:50;19.42;;;12.00;;
40244;SDS011;25963;42.694;23.600;2024-02-21T02:14:16;22.75;;;13.43;;
40244;SDS011;25963;42.694;23.600;2024-02-21T02:16:41;18.60;;;11.93;;
40244;SDS011;25963;42.694;23.600;2024-02-21T02:19:06;18.27;;;11.93;;
40244;SDS011;25963;42.694;23.600;2024-02-21T02:21:32;18.23;;;11.18;;
40244;SDS011;25963;42.694;23.600;2024-02-21T02:24:04;20.65;;;11.25;;
40244;SDS011;25963;42.694;23.600;2024-02-21T02:26:30;21.17;;;12.25;;
40244;SDS011;25963;42.694;23.600;2024-02-21T02:28:55;17.85;;;10.63;;
40244;SDS011;25963;42.694;23.600;2024-02-21T02:31:21;18.33;;;11.60;;
40244;SDS011;25963;42.694;23.600;2024-02-21T02:33:46;23.10;;;13.00;;
40244;SDS011;25963;42.694;23.600;2024-02-21T02:36:13;17.02;;;10.93;;
40244;SDS011;25963;42.694;23.600;2024-02-21T02:38:38;17.13;;;10.98;;
40244;SDS011;25963;42.694;23.600;2024-02-21T02:41:04;18.10;;;12.13;;
40244;SDS011;25963;42.694;23.600;2024-02-21T02:43:29;18.48;;;11.82;;
40244;SDS011;25963;42.694;23.600;2024-02-21T02:45:54;18.52;;;11.75;;
40244;SDS011;25963;42.694;23.600;2024-02-21T02:48:20;31.10;;;16.88;;
40244;SDS011;25963;42.694;23.600;2024-02-21T02:50:46;35.55;;;19.65;;
40244;SDS011;25963;42.694;23.600;2024-02-21T02:53:11;84.07;;;43.60;;
40244;SDS011;25963;42.694;23.600;2024-02-21T02:55:37;55.30;;;31.92;;
40244;SDS011;25963;42.694;23.600;2024-02-21T02:58:02;20.63;;;13.90;;
40244;SDS011;25963;42.694;23.600;2024-02-21T03:00:28;22.08;;;14.13;;
40244;SDS011;25963;42.694;23.600;2024-02-21T03:02:56;19.85;;;12.68;;
40244;SDS011;25963;42.694;23.600;2024-02-21T03:05:21;28.63;;;18.73;;
40244;SDS011;25963;42.694;23.600;2024-02-21T03:07:47;64.38;;;33.58;;
40244;SDS011;25963;42.694;23.600;2024-02-21T03:10:14;39.90;;;22.67;;
40244;SDS011;25963;42.694;23.600;2024-02-21T03:12:41;22.52;;;14.20;;
40244;SDS011;25963;42.694;23.600;2024-02-21T03:15:07;20.70;;;12.65;;
40244;SDS011;25963;42.694;23.600;2024-02-21T03:17:33;21.63;;;13.48;;
40244;SDS011;25963;42.694;23.600;2024-02-21T03:20:04;23.95;;;14.30;;
40244;SDS011;25963;42.694;23.600;2024-02-21T03:22:30;22.33;;;14.13;;
40244;SDS011;25963;42.694;23.600;2024-02-21T03:24:59;21.70;;;14.02;;
40244;SDS011;25963;42.694;23.600;2024-02-21T03:27:25;26.33;;;14.07;;
40244;SDS011;25963;42.694;23.600;2024-02-21T03:29:50;24.40;;;14.68;;
40244;SDS011;25963;42.694;23.600;2024-02-21T03:32:15;24.23;;;14.50;;
40244;SDS011;25963;42.694;23.600;2024-02-21T03:34:41;24.15;;;13.90;;
40244;SDS011;25963;42.694;23.600;2024-02-21T03:37:06;23.52;;;14.13;;
40244;SDS011;25963;42.694;23.600;2024-02-21T03:39:32;27.35;;;16.88;;
40244;SDS011;25963;42.694;23.600;2024-02-21T03:42:00;21.05;;;12.82;;
40244;SDS011;25963;42.694;23.600;2024-02-21T03:44:32;33.15;;;18.85;;
40244;SDS011;25963;42.694;23.600;2024-02-21T03:46:58;31.83;;;17.38;;
40244;SDS011;25963;42.694;23.600;2024-02-21T03:49:24;38.58;;;21.02;;
40244;SDS011;25963;42.694;23.600;2024-02-21T03:51:50;71.25;;;35.10;;
40244;SDS011;25963;42.694;23.600;2024-02-21T03:54:15;32.50;;;20.40;;
40244;SDS011;25963;42.694;23.600;2024-02-21T03:56:41;31.25;;;18.05;;
40244;SDS011;25963;42.694;23.600;2024-02-21T03:59:06;34.13;;;18.55;;
40244;SDS011;25963;42.694;23.600;2024-02-21T04:01:33;37.08;;;19.75;;
40244;SDS011;25963;42.694;23.600;2024-02-21T04:03:59;27.30;;;16.70;;
40244;SDS011;25963;42.694;23.600;2024-02-21T04:06:24;27.98;;;16.55;;
40244;SDS011;25963;42.694;23.600;2024-02-21T04:08:50;27.15;;;16.60;;
40244;SDS011;25963;42.694;23.600;2024-02-21T04:11:15;26.13;;;15.90;;
40244;SDS011;25963;42.694;23.600;2024-02-21T04:13:42;26.85;;;15.52;;
40244;SDS011;25963;42.694;23.600;2024-02-21T04:16:07;26.02;;;16.63;;
40244;SDS011;25963;42.694;23.600;2024-02-21T04:18:33;24.75;;;16.10;;
40244;SDS011;25963;42.694;23.600;2024-02-21T04:20:58;23.45;;;15.30;;
40244;SDS011;25963;42.694;23.600;2024-02-21T04:23:23;20.75;;;15.25;;
40244;SDS011;25963;42.694;23.600;2024-02-21T04:25:49;23.02;;;14.73;;
40244;SDS011;25963;42.694;23.600;2024-02-21T04:28:14;25.13;;;15.00;;
40244;SDS011;25963;42.694;23.600;2024-02-21T04:30:40;23.65;;;15.05;;
40244;SDS011;25963;42.694;23.600;2024-02-21T04:33:05;24.88;;;14.75;;
40244;SDS011;25963;42.694;23.600;2024-02-21T04:35:30;22.52;;;14.02;;
40244;SDS011;25963;42.694;23.600;2024-02-21T04:37:56;23.27;;;13.88;;
40244;SDS011;25963;42.694;23.600;2024-02-21T04:40:21;25.27;;;13.77;;
40244;SDS011;25963;42.694;23.600;2024-02-21T04:42:46;25.50;;;14.57;;
40244;SDS011;25963;42.694;23.600;2024-02-21T04:45:12;25.70;;;15.55;;
40244;SDS011;25963;42.694;23.600;2024-02-21T04:47:37;23.85;;;14.65;;
40244;SDS011;25963;42.694;23.600;2024-02-21T04:50:03;27.63;;;15.63;;
40244;SDS011;25963;42.694;23.600;2024-02-21T04:52:28;28.55;;;16.52;;
40244;SDS011;25963;42.694;23.600;2024-02-21T04:54:54;23.85;;;13.93;;
40244;SDS011;25963;42.694;23.600;2024-02-21T04:57:21;28.08;;;16.05;;
40244;SDS011;25963;42.694;23.600;2024-02-21T04:59:46;30.80;;;17.92;;
40244;SDS011;25963;42.694;23.600;2024-02-21T05:02:13;28.48;;;15.20;;
40244;SDS011;25963;42.694;23.600;2024-02-21T05:04:38;24.00;;;14.73;;
40244;SDS011;25963;42.694;23.600;2024-02-21T05:07:05;27.20;;;14.80;;
40244;SDS011;25963;42.694;23.600;2024-02-21T05:09:30;23.67;;;14.52;;
40244;SDS011;25963;42.694;23.600;2024-02-21T05:11:56;25.58;;;15.07;;
40244;SDS011;25963;42.694;23.600;2024-02-21T05:14:23;27.70;;;15.70;;
40244;SDS011;25963;42.694;23.600;2024-02-21T05:16:49;29.48;;;15.00;;
40244;SDS011;25963;42.694;23.600;2024-02-21T05:19:15;25.88;;;15.10;;
40244;SDS011;25963;42.694;23.600;2024-02-21T05:21:40;25.98;;;16.30;;
40244;SDS011;25963;42.694;23.600;2024-02-21T05:24:05;28.45;;;15.30;;
40244;SDS011;25963;42.694;23.600;2024-02-21T05:26:31;22.52;;;12.88;;
40244;SDS011;25963;42.694;23.600;2024-02-21T05:28:57;26.75;;;15.25;;
40244;SDS011;25963;42.694;23.600;2024-02-21T05:31:24;47.53;;;39.05;;
40244;SDS011;25963;42.694;23.600;2024-02-21T05:33:49;28.33;;;18.38;;
40244;SDS011;25963;42.694;23.600;2024-02-21T05:36:15;26.83;;;17.35;;
40244;SDS011;25963;42.694;23.600;2024-02-21T05:38:40;29.05;;;19.63;;
40244;SDS011;25963;42.694;23.600;2024-02-21T05:41:05;30.65;;;19.88;;
40244;SDS011;25963;42.694;23.600;2024-02-21T05:43:31;32.53;;;17.45;;
40244;SDS011;25963;42.694;23.600;2024-02-21T05:45:56;28.10;;;17.15;;
40244;SDS011;25963;42.694;23.600;2024-02-21T05:48:22;27.13;;;16.80;;
40244;SDS011;25963;42.694;23.600;2024-02-21T05:50:48;29.13;;;17.23;;
40244;SDS011;25963;42.694;23.600;2024-02-21T05:53:14;29.77;;;17.92;;
40244;SDS011;25963;42.694;23.600;2024-02-21T05:55:40;24.58;;;15.63;;
40244;SDS011;25963;42.694;23.600;2024-02-21T05:58:05;35.83;;;20.10;;
40244;SDS011;25963;42.694;23.600;2024-02-21T06:00:31;36.38;;;19.63;;
40244;SDS011;25963;42.694;23.600;2024-02-21T06:02:59;27.55;;;17.25;;
40244;SDS011;25963;42.694;23.600;2024-02-21T06:05:25;35.45;;;19.48;;
40244;SDS011;25963;42.694;23.600;2024-02-21T06:07:50;30.73;;;18.90;;
40244;SDS011;25963;42.694;23.600;2024-02-21T06:10:16;32.72;;;18.20;;
40244;SDS011;25963;42.694;23.600;2024-02-21T06:12:41;29.90;;;18.33;;
40244;SDS011;25963;42.694;23.600;2024-02-21T06:15:07;30.10;;;17.58;;
40244;SDS011;25963;42.694;23.600;2024-02-21T06:17:32;30.58;;;19.80;;
40244;SDS011;25963;42.694;23.600;2024-02-21T06:19:58;45.00;;;22.85;;
40244;SDS011;25963;42.694;23.600;2024-02-21T06:22:23;38.40;;;24.00;;
40244;SDS011;25963;42.694;23.600;2024-02-21T06:24:48;40.28;;;23.25;;
40244;SDS011;25963;42.694;23.600;2024-02-21T06:27:14;56.00;;;32.08;;
40244;SDS011;25963;42.694;23.600;2024-02-21T06:29:41;46.90;;;26.88;;
40244;SDS011;25963;42.694;23.600;2024-02-21T06:32:06;56.40;;;29.90;;
40244;SDS011;25963;42.694;23.600;2024-02-21T06:34:32;54.05;;;29.40;;
40244;SDS011;25963;42.694;23.600;2024-02-21T06:36:57;32.47;;;19.38;;
40244;SDS011;25963;42.694;23.600;2024-02-21T06:39:23;46.83;;;26.52;;
40244;SDS011;25963;42.694;23.600;2024-02-21T06:41:48;96.90;;;49.63;;
40244;SDS011;25963;42.694;23.600;2024-02-21T06:44:15;51.65;;;27.33;;
40244;SDS011;25963;42.694;23.600;2024-02-21T06:46:43;36.17;;;19.42;;
40244;SDS011;25963;42.694;23.600;2024-02-21T06:49:09;34.50;;;19.52;;
40244;SDS011;25963;42.694;23.600;2024-02-21T06:51:34;31.35;;;18.90;;
40244;SDS011;25963;42.694;23.600;2024-02-21T06:54:02;33.63;;;20.92;;
40244;SDS011;25963;42.694;23.600;2024-02-21T06:56:27;34.45;;;20.88;;
40244;SDS011;25963;42.694;23.600;2024-02-21T06:58:57;32.85;;;20.42;;
40244;SDS011;25963;42.694;23.600;2024-02-21T07:01:23;33.92;;;20.55;;
40244;SDS011;25963;42.694;23.600;2024-02-21T07:03:49;35.05;;;21.23;;
40244;SDS011;25963;42.694;23.600;2024-02-21T07:06:14;34.75;;;22.58;;
40244;SDS011;25963;42.694;23.600;2024-02-21T07:08:40;29.73;;;18.92;;
40244;SDS011;25963;42.694;23.600;2024-02-21T07:11:05;36.00;;;21.85;;
40244;SDS011;25963;42.694;23.600;2024-02-21T07:13:31;36.28;;;23.10;;
40244;SDS011;25963;42.694;23.600;2024-02-21T07:15:57;44.30;;;26.15;;
40244;SDS011;25963;42.694;23.600;2024-02-21T07:18:23;39.05;;;22.83;;
40244;SDS011;25963;42.694;23.600;2024-02-21T07:20:50;33.60;;;21.05;;
40244;SDS011;25963;42.694;23.600;2024-02-21T07:23:15;38.00;;;23.33;;
40244;SDS011;25963;42.694;23.600;2024-02-21T07:25:41;32.08;;;20.80;;
40244;SDS011;25963;42.694;23.600;2024-02-21T07:28:06;36.10;;;21.88;;
40244;SDS011;25963;42.694;23.600;2024-02-21T07:30:32;36.85;;;22.83;;
40244;SDS011;25963;42.694;23.600;2024-02-21T07:32:57;38.40;;;22.48;;
40244;SDS011;25963;42.694;23.600;2024-02-21T07:35:22;27.92;;;18.52;;
40244;SDS011;25963;42.694;23.600;2024-02-21T07:37:48;27.05;;;18.33;;
40244;SDS011;25963;42.694;23.600;2024-02-21T07:40:13;28.23;;;18.60;;
40244;SDS011;25963;42.694;23.600;2024-02-21T07:42:40;26.50;;;18.35;;
40244;SDS011;25963;42.694;23.600;2024-02-21T07:45:06;27.35;;;19.10;;
40244;SDS011;25963;42.694;23.600;2024-02-21T07:47:32;30.95;;;19.70;;
40244;SDS011;25963;42.694;23.600;2024-02-21T07:49:58;36.83;;;20.60;;
40244;SDS011;25963;42.694;23.600;2024-02-21T07:52:23;35.45;;;21.63;;
40244;SDS011;25963;42.694;23.600;2024-02-21T07:54:49;33.97;;;23.10;;
40244;SDS011;25963;42.694;23.600;2024-02-21T07:57:15;39.47;;;24.42;;
40244;SDS011;25963;42.694;23.600;2024-02-21T07:59:40;31.55;;;19.50;;
40244;SDS011;25963;42.694;23.600;2024-02-21T08:02:06;28.42;;;19.38;;
40244;SDS011;25963;42.694;23.600;2024-02-21T08:04:31;28.80;;;18.63;;
40244;SDS011;25963;42.694;23.600;2024-02-21T08:06:57;27.85;;;20.58;;
40244;SDS011;25963;42.694;23.600;2024-02-21T08:09:26;36.42;;;22.52;;
40244;SDS011;25963;42.694;23.600;2024-02-21T08:11:53;23.63;;;17.00;;
40244;SDS011;25963;42.694;23.600;2024-02-21T08:14:22;23.17;;;16.30;;
40244;SDS011;25963;42.694;23.600;2024-02-21T08:16:49;20.55;;;14.85;;
40244;SDS011;25963;42.694;23.600;2024-02-21T08:19:15;28.50;;;17.45;;
40244;SDS011;25963;42.694;23.600;2024-02-21T08:21:41;21.27;;;15.70;;
40244;SDS011;25963;42.694;23.600;2024-02-21T08:24:06;25.83;;;17.25;;
40244;SDS011;25963;42.694;23.600;2024-02-21T08:26:32;23.88;;;18.23;;
40244;SDS011;25963;42.694;23.600;2024-02-21T08:28:57;25.30;;;16.88;;
40244;SDS011;25963;42.694;23.600;2024-02-21T08:31:24;23.52;;;16.30;;
40244;SDS011;25963;42.694;23.600;2024-02-21T08:33:56;23.02;;;16.52;;
40244;SDS011;25963;42.694;23.600;2024-02-21T08:38:53;39.15;;;22.10;;
40244;SDS011;25963;42.694;23.600;2024-02-21T08:41:18;30.98;;;19.52;;
40244;SDS011;25963;42.694;23.600;2024-02-21T08:43:44;29.15;;;20.30;;
40244;SDS011;25963;42.694;23.600;2024-02-21T08:46:09;46.47;;;26.23;;
40244;SDS011;25963;42.694;23.600;2024-02-21T08:48:35;24.77;;;17.45;;
40244;SDS011;25963;42.694;23.600;2024-02-21T08:51:00;61.63;;;32.40;;
40244;SDS011;25963;42.694;23.600;2024-02-21T08:53:27;37.75;;;22.80;;
40244;SDS011;25963;42.694;23.600;2024-02-21T08:55:53;29.80;;;19.83;;
40244;SDS011;25963;42.694;23.600;2024-02-21T08:58:19;45.90;;;26.35;;
40244;SDS011;25963;42.694;23.600;2024-02-21T09:00:46;30.52;;;22.08;;
40244;SDS011;25963;42.694;23.600;2024-02-21T09:03:11;26.73;;;19.27;;
40244;SDS011;25963;42.694;23.600;2024-02-21T09:05:37;24.58;;;17.42;;
40244;SDS011;25963;42.694;23.600;2024-02-21T09:08:02;30.17;;;18.60;;
40244;SDS011;25963;42.694;23.600;2024-02-21T09:10:29;25.13;;;18.73;;
40244;SDS011;25963;42.694;23.600;2024-02-21T09:12:54;26.05;;;17.73;;
40244;SDS011;25963;42.694;23.600;2024-02-21T09:15:21;28.95;;;19.88;;
40244;SDS011;25963;42.694;23.600;2024-02-21T09:17:46;24.98;;;18.30;;
40244;SDS011;25963;42.694;23.600;2024-02-21T09:20:11;26.83;;;19.30;;
40244;SDS011;25963;42.694;23.600;2024-02-21T09:22:37;27.02;;;19.15;;
40244;SDS011;25963;42.694;23.600;2024-02-21T09:25:04;26.73;;;18.52;;
40244;SDS011;25963;42.694;23.600;2024-02-21T09:27:30;26.15;;;18.13;;
40244;SDS011;25963;42.694;23.600;2024-02-21T09:29:56;25.42;;;18.30;;
40244;SDS011;25963;42.694;23.600;2024-02-21T09:32:21;27.65;;;18.42;;
40244;SDS011;25963;42.694;23.600;2024-02-21T09:34:47;35.83;;;23.40;;
40244;SDS011;25963;42.694;23.600;2024-02-21T09:37:12;30.83;;;20.23;;
40244;SDS011;25963;42.694;23.600;2024-02-21T09:39:37;31.48;;;21.17;;
40244;SDS011;25963;42.694;23.600;2024-02-21T09:42:05;26.80;;;20.15;;
40244;SDS011;25963;42.694;23.600;2024-02-21T09:44:36;33.20;;;21.90;;
40244;SDS011;25963;42.694;23.600;2024-02-21T09:47:09;29.17;;;20.60;;
40244;SDS011;25963;42.694;23.600;2024-02-21T09:49:38;27.55;;;20.02;;
40244;SDS011;25963;42.694;23.600;2024-02-21T09:52:06;32.45;;;20.17;;
40244;SDS011;25963;42.694;23.600;2024-02-21T09:54:33;28.00;;;18.90;;
40244;SDS011;25963;42.694;23.600;2024-02-21T09:56:59;30.23;;;21.00;;
40244;SDS011;25963;42.694;23.600;2024-02-21T09:59:25;26.80;;;18.55;;
40244;SDS011;25963;42.694;23.600;2024-02-21T10:01:53;23.95;;;16.55;;
40244;SDS011;25963;42.694;23.600;2024-02-21T10:04:19;27.52;;;18.90;;
40244;SDS011;25963;42.694;23.600;2024-02-21T10:06:45;24.02;;;17.27;;
40244;SDS011;25963;42.694;23.600;2024-02-21T10:09:20;19.08;;;12.80;;
40244;SDS011;25963;42.694;23.600;2024-02-21T10:11:48;17.77;;;13.48;;
40244;SDS011;25963;42.694;23.600;2024-02-21T10:14:14;15.48;;;12.23;;
40244;SDS011;25963;42.694;23.600;2024-02-21T10:16:40;20.55;;;14.35;;
40244;SDS011;25963;42.694;23.600;2024-02-21T10:19:06;22.40;;;15.73;;
40244;SDS011;25963;42.694;23.600;2024-02-21T10:21:31;24.30;;;15.48;;
40244;SDS011;25963;42.694;23.600;2024-02-21T10:23:57;18.52;;;13.55;;
40244;SDS011;25963;42.694;23.600;2024-02-21T10:26:22;22.80;;;15.98;;
40244;SDS011;25963;42.694;23.600;2024-02-21T10:28:48;22.67;;;15.20;;
40244;SDS011;25963;42.694;23.600;2024-02-21T10:31:23;23.63;;;16.63;;
40244;SDS011;25963;42.694;23.600;2024-02-21T10:33:59;18.48;;;14.30;;
40244;SDS011;25963;42.694;23.600;2024-02-21T10:36:28;20.30;;;15.43;;
40244;SDS011;25963;42.694;23.600;2024-02-21T10:38:54;23.42;;;16.77;;
40244;SDS011;25963;42.694;23.600;2024-02-21T10:41:20;21.13;;;13.68;;
40244;SDS011;25963;42.694;23.600;2024-02-21T10:43:50;21.33;;;14.80;;
40244;SDS011;25963;42.694;23.600;2024-02-21T10:46:20;20.65;;;14.90;;
40244;SDS011;25963;42.694;23.600;2024-02-21T10:48:57;14.60;;;11.40;;
40244;SDS011;25963;42.694;23.600;2024-02-21T10:51:33;14.23;;;11.88;;
40244;SDS011;25963;42.694;23.600;2024-02-21T10:56:43;21.95;;;13.95;;
40244;SDS011;25963;42.694;23.600;2024-02-21T10:59:11;15.80;;;12.15;;
40244;SDS011;25963;42.694;23.600;2024-02-21T11:01:39;14.07;;;10.27;;
40244;SDS011;25963;42.694;23.600;2024-02-21T11:04:05;12.07;;;9.20;;
40244;SDS011;25963;42.694;23.600;2024-02-21T11:06:32;22.88;;;14.35;;
40244;SDS011;25963;42.694;23.600;2024-02-21T11:09:00;22.83;;;13.32;;
40244;SDS011;25963;42.694;23.600;2024-02-21T11:11:29;12.75;;;10.25;;
40244;SDS011;25963;42.694;23.600;2024-02-21T11:14:05;12.15;;;9.73;;
40244;SDS011;25963;42.694;23.600;2024-02-21T11:16:34;18.58;;;12.90;;
40244;SDS011;25963;42.694;23.600;2024-02-21T11:19:05;15.90;;;11.50;;
40244;SDS011;25963;42.694;23.600;2024-02-21T11:21:34;14.70;;;11.63;;
40244;SDS011;25963;42.694;23.600;2024-02-21T11:24:03;11.23;;;8.63;;
40244;SDS011;25963;42.694;23.600;2024-02-21T11:26:29;9.43;;;7.30;;
40244;SDS011;25963;42.694;23.600;2024-02-21T11:28:59;10.02;;;6.72;;
40244;SDS011;25963;42.694;23.600;2024-02-21T11:31:26;10.10;;;7.40;;
40244;SDS011;25963;42.694;23.600;2024-02-21T11:33:54;10.00;;;7.50;;
40244;SDS011;25963;42.694;23.600;2024-02-21T11:36:26;30.38;;;10.90;;
40244;SDS011;25963;42.694;23.600;2024-02-21T11:38:52;13.88;;;10.57;;
40244;SDS011;25963;42.694;23.600;2024-02-21T11:41:21;12.75;;;9.75;;
40244;SDS011;25963;42.694;23.600;2024-02-21T11:43:48;14.88;;;9.93;;
40244;SDS011;25963;42.694;23.600;2024-02-21T11:46:14;13.45;;;10.50;;
40244;SDS011;25963;42.694;23.600;2024-02-21T11:48:40;15.60;;;10.73;;
40244;SDS011;25963;42.694;23.600;2024-02-21T11:51:09;12.13;;;10.00;;
40244;SDS011;25963;42.694;23.600;2024-02-21T11:53:35;12.57;;;10.02;;
40244;SDS011;25963;42.694;23.600;2024-02-21T11:56:00;12.63;;;9.20;;
40244;SDS011;25963;42.694;23.600;2024-02-21T11:58:25;12.73;;;10.02;;
40244;SDS011;25963;42.694;23.600;2024-02-21T12:00:51;12.10;;;10.30;;
40244;SDS011;25963;42.694;23.600;2024-02-21T12:03:17;13.50;;;11.50;;
40244;SDS011;25963;42.694;23.600;2024-02-21T12:05:42;14.45;;;10.88;;
40244;SDS011;25963;42.694;23.600;2024-02-21T12:08:08;17.05;;;12.10;;
40244;SDS011;25963;42.694;23.600;2024-02-21T12:10:34;11.73;;;10.48;;
40244;SDS011;25963;42.694;23.600;2024-02-21T12:13:09;14.02;;;10.93;;
40244;SDS011;25963;42.694;23.600;2024-02-21T12:15:35;13.70;;;9.45;;
40244;SDS011;25963;42.694;23.600;2024-02-21T12:18:01;11.00;;;8.00;;
40244;SDS011;25963;42.694;23.600;2024-02-21T12:20:26;14.65;;;11.07;;
40244;SDS011;25963;42.694;23.600;2024-02-21T12:22:52;18.52;;;14.20;;
40244;SDS011;25963;42.694;23.600;2024-02-21T12:25:19;11.45;;;8.68;;
40244;SDS011;25963;42.694;23.600;2024-02-21T12:27:51;17.45;;;12.95;;
40244;SDS011;25963;42.694;23.600;2024-02-21T12:30:17;15.93;;;9.75;;
40244;SDS011;25963;42.694;23.600;2024-02-21T12:32:42;12.13;;;9.55;;
40244;SDS011;25963;42.694;23.600;2024-02-21T12:35:08;10.20;;;7.13;;
40244;SDS011;25963;42.694;23.600;2024-02-21T12:37:33;12.57;;;8.35;;
40244;SDS011;25963;42.694;23.600;2024-02-21T12:39:59;15.40;;;9.05;;
40244;SDS011;25963;42.694;23.600;2024-02-21T12:45:28;10.00;;;7.68;;
40244;SDS011;25963;42.694;23.600;2024-02-21T12:47:53;13.73;;;10.27;;
40244;SDS011;25963;42.694;23.600;2024-02-21T12:50:19;11.48;;;8.38;;
40244;SDS011;25963;42.694;23.600;2024-02-21T12:52:45;15.80;;;10.55;;
40244;SDS011;25963;42.694;23.600;2024-02-21T12:55:11;21.55;;;9.15;;
40244;SDS011;25963;42.694;23.600;2024-02-21T12:57:38;19.20;;;10.48;;
40244;SDS011;25963;42.694;23.600;2024-02-21T13:00:03;13.48;;;10.00;;
40244;SDS011;25963;42.694;23.600;2024-02-21T13:02:33;19.05;;;11.93;;
40244;SDS011;25963;42.694;23.600;2024-02-21T13:04:58;13.55;;;8.77;;
40244;SDS011;25963;42.694;23.600;2024-02-21T13:07:25;15.63;;;7.57;;
40244;SDS011;25963;42.694;23.600;2024-02-21T13:09:50;12.75;;;9.27;;
40244;SDS011;25963;42.694;23.600;2024-02-21T13:12:16;15.23;;;10.30;;
40244;SDS011;25963;42.694;23.600;2024-02-21T13:14:41;34.47;;;16.95;;
40244;SDS011;25963;42.694;23.600;2024-02-21T13:17:08;18.73;;;11.27;;
40244;SDS011;25963;42.694;23.600;2024-02-21T13:19:34;17.52;;;10.43;;
40244;SDS011;25963;42.694;23.600;2024-02-21T13:22:00;19.48;;;11.18;;
40244;SDS011;25963;42.694;23.600;2024-02-21T13:24:25;20.98;;;12.10;;
40244;SDS011;25963;42.694;23.600;2024-02-21T13:26:51;24.80;;;12.07;;
40244;SDS011;25963;42.694;23.600;2024-02-21T13:29:16;37.90;;;17.83;;
40244;SDS011;25963;42.694;23.600;2024-02-21T13:31:41;21.50;;;11.73;;
40244;SDS011;25963;42.694;23.600;2024-02-21T13:34:07;40.38;;;18.83;;
40244;SDS011;25963;42.694;23.600;2024-02-21T13:36:33;19.52;;;11.05;;
40244;SDS011;25963;42.694;23.600;2024-02-21T13:38:59;36.08;;;18.15;;
40244;SDS011;25963;42.694;23.600;2024-02-21T13:41:25;54.28;;;22.90;;
40244;SDS011;25963;42.694;23.600;2024-02-21T13:43:50;49.67;;;22.13;;
40244;SDS011;25963;42.694;23.600;2024-02-21T13:46:16;69.45;;;29.00;;
40244;SDS011;25963;42.694;23.600;2024-02-21T13:48:41;36.22;;;16.73;;
40244;SDS011;25963;42.694;23.600;2024-02-21T13:51:07;48.67;;;19.65;;
40244;SDS011;25963;42.694;23.600;2024-02-21T13:53:32;82.85;;;28.55;;
40244;SDS011;25963;42.694;23.600;2024-02-21T13:55:59;19.27;;;9.93;;
40244;SDS011;25963;42.694;23.600;2024-02-21T13:58:25;63.17;;;24.08;;
40244;SDS011;25963;42.694;23.600;2024-02-21T14:00:51;45.17;;;18.73;;
40244;SDS011;25963;42.694;23.600;2024-02-21T14:03:17;78.97;;;27.23;;
40244;SDS011;25963;42.694;23.600;2024-02-21T14:05:44;60.30;;;22.58;;
40244;SDS011;25963;42.694;23.600;2024-02-21T14:08:09;54.92;;;19.88;;
40244;SDS011;25963;42.694;23.600;2024-02-21T14:10:34;46.88;;;17.77;;
40244;SDS011;25963;42.694;23.600;2024-02-21T14:13:00;54.83;;;22.80;;